.
WxDataArchive / Data Records for 2015-07-14
2015-07-13 July 2015 2015-07-15

Data Records for Tuesday, 14 July 2015

Time	Temp	Chill	HIndex	Humid	Dewpt	 Wind 	HiWind	WindDir	Rain 	Barom
-----	----	-----	------	-----	-----	------	------	-------	-----	-----
00:00	69.3	69.3	69.3	88	65.6	0	0	---	0.00	29.578 
00:05	68.9	68.9	68.9	88	65.2	0	0	---	0.00	29.578 
00:10	68.8	68.8	68.8	89	65.4	0	1	292	0.00	29.578 
00:15	68.6	68.6	68.6	90	65.5	0	2	292	0.00	29.601 
00:20	68.4	68.4	68.4	90	65.3	0	0	---	0.00	29.601 
00:25	68.4	68.4	68.4	91	65.7	0	1	292	0.00	29.601 
00:30	68.3	68.3	68.3	91	65.6	0	1	292	0.00	29.591 
00:35	68.3	68.3	68.3	91	65.6	0	2	292	0.00	29.591 
00:40	68.1	68.1	68.1	91	65.4	0	2	292	0.00	29.591 
00:45	67.9	67.9	67.9	91	65.2	0	2	292	0.00	29.573 
00:50	67.8	67.8	67.8	91	65.1	0	2	292	0.00	29.573 
00:55	67.8	67.8	67.8	91	65.1	0	1	292	0.00	29.573 
01:00	67.6	67.6	67.6	91	64.9	0	3	292	0.00	29.580 
01:05	67.4	67.4	67.4	91	64.7	0	1	90	0.00	29.580 
01:10	67.3	67.3	67.3	91	64.6	0	1	90	0.00	29.580 
01:15	67.3	67.3	67.3	91	64.6	0	2	90	0.00	29.561 
01:20	67.1	67.1	67.1	91	64.4	0	0	---	0.00	29.561 
01:25	67.1	67.1	67.1	92	64.7	0	1	90	0.00	29.561 
01:30	66.9	66.9	66.9	92	64.5	0	1	90	0.00	29.549 
01:35	66.9	66.9	66.9	92	64.5	0	1	90	0.00	29.549 
01:40	66.8	66.8	66.8	92	64.4	0	1	90	0.00	29.549 
01:45	66.6	66.6	66.6	92	64.2	0	2	90	0.00	29.552 
01:50	66.6	66.6	66.6	92	64.2	0	1	90	0.00	29.552 
01:55	66.4	66.4	66.4	92	64.0	0	0	---	0.00	29.552 
02:00	66.4	66.4	66.4	92	64.0	0	0	---	0.00	29.564 
02:05	66.3	66.3	66.3	92	63.9	0	0	---	0.00	29.564 
02:10	66.3	66.3	66.3	92	63.9	0	1	90	0.00	29.564 
02:15	66.3	66.3	66.3	92	63.9	0	0	---	0.00	29.560 
02:20	66.3	66.3	66.3	92	63.9	0	0	---	0.00	29.560 
02:25	66.3	66.3	66.3	92	63.9	0	0	---	0.00	29.560 
02:30	66.3	66.3	66.3	92	63.9	0	0	---	0.00	29.557 
02:35	66.3	66.3	66.3	92	63.9	0	0	---	0.00	29.557 
02:40	66.3	66.3	66.3	92	63.9	0	1	90	0.00	29.557 
02:45	66.3	66.3	66.3	92	63.9	0	2	90	0.00	29.546 
02:50	66.3	66.3	66.3	92	63.9	0	2	135	0.00	29.546 
02:55	66.3	66.3	66.3	91	63.6	0	2	135	0.00	29.546 
03:00	66.3	66.3	66.3	91	63.6	0	2	135	0.00	29.544 
03:05	66.3	66.3	66.3	91	63.6	0	1	135	0.00	29.544 
03:10	66.3	66.3	66.3	91	63.6	0	1	135	0.00	29.544 
03:15	66.3	66.3	66.3	91	63.6	0	1	135	0.00	29.541 
03:20	66.4	66.4	66.4	91	63.7	0	1	135	0.00	29.541 
03:25	66.4	66.4	66.4	91	63.7	0	1	135	0.00	29.541 
03:30	66.4	66.4	66.4	91	63.7	0	1	135	0.00	29.541 
03:35	66.4	66.4	66.4	90	63.4	0	0	---	0.00	29.541 
03:40	66.4	66.4	66.4	90	63.4	0	1	135	0.00	29.541 
03:45	66.4	66.4	66.4	90	63.4	0	0	---	0.00	29.530 
03:50	66.6	66.6	66.6	90	63.6	0	1	135	0.00	29.530 
03:55	66.6	66.6	66.6	90	63.6	0	1	135	0.00	29.530 
04:00	66.8	66.8	66.8	90	63.8	0	2	135	0.00	29.525 
04:05	66.9	66.9	66.9	89	63.5	0	0	---	0.00	29.525 
04:10	67.1	67.1	67.1	89	63.7	0	1	135	0.00	29.525 
04:15	67.1	67.1	67.1	89	63.7	0	1	135	0.00	29.525 
04:20	67.3	67.3	67.3	88	63.6	0	0	---	0.00	29.525 
04:25	67.3	67.3	67.3	88	63.6	0	0	---	0.00	29.525 
04:30	67.3	67.3	67.3	88	63.6	0	1	135	0.00	29.528 
04:35	67.4	67.4	67.4	88	63.7	0	0	---	0.00	29.528 
04:40	67.4	67.4	67.4	88	63.7	0	1	135	0.00	29.528 
04:45	67.4	67.4	67.4	88	63.7	0	0	---	0.00	29.533 
04:50	67.4	67.4	67.4	88	63.7	0	1	135	0.00	29.533 
04:55	67.4	67.4	67.4	88	63.7	0	1	135	0.00	29.533 
05:00	67.4	67.4	67.4	88	63.7	0	1	135	0.00	29.540 
05:05	67.4	67.4	67.4	88	63.7	0	1	135	0.00	29.540 
05:10	67.6	67.6	67.6	88	63.9	0	0	---	0.00	29.540 
05:15	67.6	67.6	67.6	87	63.6	0	0	---	0.00	29.524 
05:20	67.6	67.6	67.6	88	63.9	0	0	---	0.00	29.524 
05:25	67.6	67.6	67.6	88	63.9	0	1	135	0.00	29.524 
05:30	67.6	67.6	67.6	88	63.9	0	0	---	0.00	29.523 
05:35	67.6	67.6	67.6	88	63.9	0	1	135	0.00	29.523 
05:40	67.6	67.6	67.6	88	63.9	0	2	135	0.00	29.523 
05:45	67.6	67.6	67.6	88	63.9	0	1	135	0.00	29.518 
05:50	67.6	67.6	67.6	88	63.9	0	2	135	0.00	29.518 
05:55	67.6	67.6	67.6	88	63.9	0	0	---	0.00	29.518 
06:00	67.6	67.6	67.6	88	63.9	0	1	135	0.00	29.509 
06:05	67.6	67.6	67.6	88	63.9	0	1	135	0.00	29.509 
06:10	67.6	67.6	67.6	88	63.9	0	0	---	0.00	29.509 
06:15	67.6	67.6	67.6	89	64.2	0	1	135	0.00	29.510 
06:20	67.6	67.6	67.6	89	64.2	0	1	135	0.00	29.510 
06:25	67.8	67.8	67.8	89	64.4	0	0	---	0.00	29.510 
06:30	67.8	67.8	67.8	89	64.4	0	2	135	0.00	29.509 
06:35	67.8	67.8	67.8	90	64.8	0	0	---	0.00	29.509 
06:40	67.9	67.9	67.9	90	64.9	0	0	---	0.00	29.509 
06:45	67.9	67.9	67.9	90	64.9	0	0	---	0.00	29.513 
06:50	68.1	68.1	68.1	90	65.0	0	2	22	0.00	29.513 
06:55	68.3	68.3	68.3	90	65.2	1	3	22	0.00	29.513 
07:00	68.4	68.4	68.4	90	65.3	0	3	338	0.00	29.520 
07:05	68.6	68.6	68.6	90	65.5	0	2	338	0.00	29.520 
07:10	68.6	68.6	68.6	90	65.5	0	2	338	0.00	29.520 
07:15	68.8	68.8	68.8	90	65.7	1	3	315	0.00	29.530 
07:20	68.8	68.8	68.8	90	65.7	0	2	315	0.00	29.530 
07:25	68.9	68.9	68.9	90	65.8	0	2	315	0.00	29.530 
07:30	69.1	69.1	69.1	91	66.4	0	2	315	0.00	29.527 
07:35	69.3	69.3	69.3	91	66.6	0	2	315	0.00	29.527 
07:40	69.6	69.6	69.6	91	66.8	0	1	315	0.00	29.527 
07:45	69.9	69.9	69.9	91	67.1	0	3	315	0.00	29.526 
07:50	70.3	70.3	70.3	91	67.5	0	1	315	0.00	29.526 
07:55	70.6	70.6	70.6	90	67.5	0	2	315	0.00	29.526 
08:00	71.1	71.1	71.1	90	68.0	0	1	315	0.00	29.521 
08:05	71.6	71.6	71.6	90	68.5	0	2	315	0.00	29.521 
08:10	72.1	72.1	72.1	89	68.7	0	2	315	0.00	29.521 
08:15	72.5	72.5	72.5	88	68.7	1	3	315	0.00	29.521 
08:20	72.8	72.8	72.8	88	69.0	0	2	315	0.00	29.521 
08:25	73.3	73.3	73.3	87	69.2	1	3	315	0.00	29.521 
08:30	73.9	73.9	73.9	87	69.8	1	4	315	0.00	29.520 
08:35	74.0	74.0	74.0	86	69.5	1	3	315	0.00	29.520 
08:40	74.4	74.4	74.4	86	69.9	0	2	315	0.00	29.520 
08:45	74.6	74.6	74.6	85	69.8	0	3	315	0.00	29.519 
08:50	75.1	75.1	75.2	84	69.9	0	2	315	0.00	29.519 
08:55	75.1	75.1	75.2	84	69.9	1	3	315	0.00	29.519 
09:00	75.6	75.6	76.1	83	70.1	0	2	315	0.00	29.517 
09:05	76.1	76.1	76.9	83	70.5	0	2	315	0.00	29.517 
09:10	76.5	76.5	77.7	81	70.2	0	5	270	0.00	29.517 
09:15	76.7	76.7	78.0	81	70.4	1	3	270	0.00	29.520 
09:20	76.7	76.7	78.0	81	70.4	1	4	270	0.00	29.520 
09:25	76.7	76.7	78.1	80	70.0	1	4	292	0.00	29.520 
09:30	77.0	77.0	78.6	80	70.3	1	4	292	0.00	29.516 
09:35	77.2	77.2	78.9	79	70.2	2	4	292	0.00	29.516 
09:40	77.0	77.0	78.6	79	70.0	1	4	292	0.00	29.516 
09:45	76.8	76.8	78.2	80	70.1	0	3	292	0.00	29.517 
09:50	77.2	77.2	78.9	80	70.5	1	4	292	0.00	29.517 
09:55	77.2	77.2	78.9	79	70.2	1	5	292	0.00	29.517 
10:00	77.4	77.4	79.2	80	70.7	1	2	292	0.00	29.515 
10:05	78.1	78.1	80.5	80	71.4	0	2	292	0.00	29.515 
10:10	78.1	78.1	80.4	78	70.7	0	3	292	0.00	29.515 
10:15	77.4	77.4	79.2	80	70.7	2	5	292	0.03	29.521 
10:20	76.3	76.3	77.3	82	70.4	0	3	292	0.00	29.521 
10:25	75.8	75.8	76.2	85	71.0	0	3	292	0.00	29.521 
10:30	75.1	75.1	75.0	85	70.3	0	2	292	0.00	29.526 
10:35	74.6	74.6	74.6	86	70.1	1	5	292	0.00	29.526 
10:40	74.0	74.0	74.0	87	69.9	2	5	292	0.06	29.526 
10:45	72.8	72.8	72.8	87	68.7	3	6	270	0.11	29.536 
10:50	71.8	71.8	71.8	88	68.0	1	3	270	0.00	29.536 
10:55	71.8	71.8	71.8	90	68.7	1	3	270	0.01	29.536 
11:00	72.3	72.3	72.3	91	69.5	1	2	270	0.00	29.526 
11:05	73.2	73.2	73.2	92	70.7	1	3	270	0.00	29.526 
11:10	73.9	73.9	73.9	92	71.4	1	3	270	0.00	29.526 
11:15	73.9	73.9	73.9	92	71.4	1	4	270	0.00	29.522 
11:20	74.0	74.0	74.0	92	71.5	2	5	270	0.00	29.522 
11:25	74.6	74.6	74.6	92	72.1	2	5	270	0.00	29.522 
11:30	74.6	74.6	74.6	91	71.8	4	10	270	0.00	29.523 
11:35	74.9	74.9	74.9	90	71.8	4	7	270	0.00	29.523 
11:40	75.4	75.4	75.1	88	71.6	3	7	292	0.00	29.523 
11:45	75.8	75.8	76.2	85	71.0	4	10	270	0.00	29.511 
11:50	76.3	76.3	77.2	83	70.7	4	7	292	0.00	29.511 
11:55	76.7	76.7	78.0	81	70.4	4	11	292	0.00	29.511 
12:00	76.8	76.8	78.3	79	69.8	5	13	270	0.00	29.510 
12:05	77.2	77.2	79.0	77	69.4	5	9	292	0.00	29.510 
12:10	77.4	77.4	79.3	76	69.2	4	7	292	0.00	29.510 
12:15	77.7	77.7	79.7	77	69.9	3	7	270	0.00	29.508 
12:20	78.1	78.1	80.2	72	68.3	5	11	292	0.00	29.508 
12:25	78.5	78.5	80.8	72	68.7	3	7	292	0.00	29.508 
12:30	78.6	78.6	81.0	72	68.8	4	7	270	0.00	29.509 
12:35	78.8	78.8	81.1	70	68.2	4	9	270	0.00	29.509 
12:40	79.0	79.0	81.3	69	67.9	5	10	292	0.00	29.509 
12:45	79.2	79.2	81.5	68	67.7	5	11	270	0.00	29.511 
12:50	79.2	79.2	81.5	67	67.3	5	11	270	0.00	29.511 
12:55	79.2	79.2	81.5	67	67.3	4	10	292	0.00	29.511 
13:00	79.2	79.2	81.5	67	67.3	4	7	270	0.00	29.521 
13:05	78.6	78.6	80.6	66	66.3	4	8	270	0.00	29.521 
13:10	78.6	78.6	80.6	65	65.8	4	12	315	0.00	29.521 
13:15	78.8	78.8	80.7	64	65.6	5	10	292	0.00	29.525 
13:20	78.3	78.3	80.2	64	65.1	5	11	292	0.00	29.525 
13:25	78.5	78.5	80.4	64	65.3	5	12	292	0.00	29.525 
13:30	78.6	78.6	80.4	63	64.9	6	15	270	0.00	29.526 
13:35	78.6	78.6	80.5	64	65.4	5	15	315	0.00	29.526 
13:40	78.6	78.6	80.6	65	65.8	4	10	292	0.00	29.526 
13:45	78.8	78.8	80.6	62	64.7	5	12	292	0.00	29.533 
13:50	78.8	78.8	80.7	64	65.6	5	10	315	0.00	29.533 
13:55	78.5	78.5	80.3	63	64.8	5	10	315	0.00	29.533 
14:00	78.6	78.6	80.6	65	65.8	6	10	292	0.00	29.539 
14:05	78.5	78.5	80.4	64	65.3	5	11	292	0.00	29.539 
14:10	78.6	78.6	80.4	63	64.9	5	9	292	0.00	29.539 
14:15	79.0	79.0	81.0	65	66.2	4	8	292	0.00	29.541 
14:20	79.0	79.0	80.9	63	65.3	4	9	270	0.00	29.541 
14:25	79.2	79.2	81.1	63	65.5	5	10	270	0.00	29.541 
14:30	79.2	79.2	81.1	62	65.0	5	7	270	0.00	29.543 
14:35	78.8	78.8	80.5	61	64.2	5	11	292	0.00	29.543 
14:40	78.3	78.3	80.1	62	64.2	6	10	292	0.00	29.543 
14:45	77.6	77.6	79.4	64	64.4	4	7	292	0.00	29.551 
14:50	77.4	77.4	79.2	66	65.1	5	10	338	0.00	29.551 
14:55	77.4	77.4	79.2	65	64.7	5	9	292	0.00	29.551 
15:00	77.6	77.6	79.4	65	64.9	5	10	315	0.00	29.550 
15:05	77.2	77.2	79.0	65	64.5	4	12	315	0.00	29.550 
15:10	76.8	76.8	78.6	66	64.6	5	12	292	0.00	29.550 
15:15	77.4	77.4	79.2	66	65.1	3	5	0	0.00	29.556 
15:20	77.9	77.9	79.8	67	66.0	3	9	292	0.00	29.556 
15:25	77.9	77.9	79.7	65	65.2	4	9	315	0.00	29.556 
15:30	77.9	77.9	79.7	64	64.7	5	10	292	0.00	29.561 
15:35	77.9	77.9	79.7	65	65.2	5	12	292	0.00	29.561 
15:40	78.1	78.1	80.0	65	65.4	5	9	270	0.00	29.561 
15:45	77.9	77.9	79.7	63	64.3	5	10	315	0.00	29.570 
15:50	77.9	77.9	79.7	63	64.3	5	12	315	0.00	29.570 
15:55	77.6	77.6	79.4	64	64.4	5	12	292	0.00	29.570 
16:00	77.2	77.2	79.0	66	64.9	3	7	315	0.00	29.575 
16:05	77.0	77.0	78.8	66	64.8	3	7	292	0.00	29.575 
16:10	77.2	77.2	79.0	66	64.9	4	10	292	0.00	29.575 
16:15	76.8	76.8	78.6	65	64.1	5	11	292	0.00	29.576 
16:20	77.2	77.2	79.0	64	64.1	6	13	270	0.00	29.576 
16:25	76.8	76.8	78.6	65	64.1	5	10	315	0.00	29.576 
16:30	76.8	76.8	78.6	65	64.1	4	9	292	0.00	29.574 
16:35	77.2	77.2	79.0	63	63.6	5	10	292	0.00	29.574 
16:40	77.0	77.0	78.8	63	63.4	4	10	292	0.00	29.574 
16:45	77.4	77.4	79.2	62	63.3	5	10	270	0.00	29.576 
16:50	77.4	77.4	79.2	63	63.8	4	10	315	0.00	29.576 
16:55	76.8	76.8	78.6	64	63.7	4	10	292	0.00	29.576 
17:00	76.3	76.3	78.1	65	63.6	4	10	292	0.00	29.585 
17:05	76.1	76.1	78.0	64	63.0	4	12	315	0.00	29.585 
17:10	76.1	76.1	78.0	65	63.5	3	7	315	0.00	29.585 
17:15	76.0	76.0	77.9	65	63.4	3	5	315	0.00	29.589 
17:20	76.0	76.0	77.8	66	63.8	3	9	292	0.00	29.589 
17:25	76.0	76.0	77.9	65	63.4	4	7	315	0.00	29.589 
17:30	76.0	76.0	77.9	65	63.4	3	7	292	0.00	29.592 
17:35	76.0	76.0	77.9	65	63.4	3	10	338	0.00	29.592 
17:40	75.8	75.8	77.7	65	63.2	4	7	315	0.00	29.592 
17:45	75.8	75.8	77.7	66	63.6	4	10	292	0.00	29.591 
17:50	76.1	76.1	78.0	65	63.5	3	6	292	0.00	29.591 
17:55	76.1	76.1	78.0	65	63.5	4	9	270	0.00	29.591 
18:00	76.0	76.0	77.8	66	63.8	4	9	270	0.00	29.589 
18:05	76.3	76.3	78.1	65	63.6	4	7	270	0.00	29.589 
18:10	76.1	76.1	78.0	65	63.5	4	7	292	0.00	29.589 
18:15	76.0	76.0	77.8	66	63.8	4	10	292	0.00	29.590 
18:20	76.3	76.3	78.1	66	64.1	3	5	292	0.00	29.590 
18:25	76.5	76.5	78.3	65	63.8	3	7	292	0.00	29.590 
18:30	76.5	76.5	78.3	65	63.8	3	6	270	0.00	29.590 
18:35	76.5	76.5	78.3	65	63.8	3	10	292	0.00	29.590 
18:40	76.7	76.7	78.5	65	64.0	3	7	292	0.00	29.590 
18:45	76.5	76.5	78.3	63	62.9	5	10	292	0.00	29.597 
18:50	76.5	76.5	78.3	64	63.4	3	11	292	0.00	29.597 
18:55	76.0	76.0	78.0	62	62.0	5	10	292	0.00	29.597 
19:00	75.8	75.8	77.8	63	62.3	4	7	315	0.00	29.605 
19:05	75.6	75.6	77.6	64	62.5	4	10	292	0.00	29.605 
19:10	75.4	75.4	77.4	64	62.4	4	9	292	0.00	29.605 
19:15	75.4	75.4	77.4	64	62.4	3	8	292	0.00	29.603 
19:20	75.4	75.4	77.4	65	62.8	3	7	292	0.00	29.603 
19:25	75.3	75.3	77.4	64	62.3	4	7	0	0.00	29.603 
19:30	75.3	75.3	77.3	65	62.7	3	7	292	0.00	29.604 
19:35	75.3	75.3	77.3	65	62.7	2	4	292	0.00	29.604 
19:40	75.3	75.3	77.3	65	62.7	2	5	315	0.00	29.604 
19:45	75.3	75.3	77.2	66	63.1	2	4	292	0.00	29.616 
19:50	74.9	74.9	74.9	65	62.3	4	7	315	0.00	29.616 
19:55	74.6	74.6	74.6	66	62.5	3	6	292	0.00	29.616 
20:00	74.4	74.4	74.4	67	62.7	2	5	292	0.00	29.616 
20:05	74.4	74.4	74.4	67	62.7	2	5	292	0.00	29.616 
20:10	74.2	74.2	74.2	68	62.9	3	6	315	0.00	29.616 
20:15	73.9	73.9	73.9	68	62.7	3	7	338	0.00	29.617 
20:20	73.9	73.9	73.9	69	63.1	2	5	292	0.00	29.617 
20:25	73.5	73.5	73.5	69	62.7	2	5	292	0.00	29.617 
20:30	73.3	73.3	73.3	69	62.5	2	7	315	0.00	29.618 
20:35	73.2	73.2	73.2	70	62.8	2	6	315	0.00	29.618 
20:40	73.0	73.0	73.0	71	63.0	2	5	292	0.00	29.618 
20:45	72.8	72.8	72.8	71	62.8	2	6	292	0.00	29.625 
20:50	72.8	72.8	72.8	72	63.2	2	5	292	0.00	29.625 
20:55	72.7	72.7	72.7	72	63.1	2	6	292	0.00	29.625 
21:00	72.5	72.5	72.5	73	63.3	2	5	292	0.00	29.633 
21:05	72.3	72.3	72.3	73	63.1	2	7	338	0.00	29.633 
21:10	72.3	72.3	72.3	74	63.5	1	4	338	0.00	29.633 
21:15	72.1	72.1	72.1	74	63.3	2	4	292	0.00	29.636 
21:20	71.8	71.8	71.8	75	63.4	1	3	292	0.00	29.636 
21:25	71.6	71.6	71.6	76	63.6	1	4	292	0.00	29.636 
21:30	71.6	71.6	71.6	76	63.6	1	3	292	0.00	29.647 
21:35	71.5	71.5	71.5	77	63.9	1	4	292	0.00	29.647 
21:40	71.3	71.3	71.3	77	63.7	1	4	292	0.00	29.647 
21:45	71.1	71.1	71.1	77	63.5	1	3	315	0.00	29.649 
21:50	70.9	70.9	70.9	78	63.7	1	4	315	0.00	29.649 
21:55	70.9	70.9	70.9	78	63.7	1	2	315	0.00	29.649 
22:00	70.8	70.8	70.8	79	64.0	1	3	315	0.00	29.664 
22:05	70.8	70.8	70.8	79	64.0	1	5	315	0.00	29.664 
22:10	70.6	70.6	70.6	79	63.8	0	2	292	0.00	29.664 
22:15	70.6	70.6	70.6	79	63.8	1	2	292	0.00	29.678 
22:20	70.4	70.4	70.4	80	63.9	0	2	292	0.00	29.678 
22:25	70.3	70.3	70.3	80	63.8	1	3	292	0.00	29.678 
22:30	70.3	70.3	70.3	81	64.2	1	3	292	0.00	29.700 
22:35	70.1	70.1	70.1	81	64.0	0	3	292	0.00	29.700 
22:40	70.1	70.1	70.1	81	64.0	1	3	292	0.00	29.700 
22:45	69.9	69.9	69.9	81	63.8	1	4	292	0.00	29.705 
22:50	69.9	69.9	69.9	81	63.8	1	2	292	0.00	29.705 
22:55	69.8	69.8	69.8	82	64.0	1	2	292	0.00	29.705 
23:00	69.6	69.6	69.6	82	63.9	1	3	292	0.00	29.716 
23:05	69.6	69.6	69.6	82	63.9	1	2	292	0.00	29.716 
23:10	69.6	69.6	69.6	83	64.2	0	2	292	0.00	29.716 
23:15	69.4	69.4	69.4	83	64.0	1	3	292	0.00	29.718 
23:20	69.4	69.4	69.4	83	64.0	1	3	292	0.00	29.718 
23:25	69.4	69.4	69.4	83	64.0	1	4	292	0.00	29.718 
23:30	69.3	69.3	69.3	84	64.2	1	4	315	0.00	29.728 
23:35	69.3	69.3	69.3	84	64.2	1	3	315	0.00	29.728 
23:40	69.3	69.3	69.3	84	64.2	2	4	315	0.00	29.728 
23:45	69.1	69.1	69.1	84	64.1	1	3	292	0.00	29.731 
23:50	69.1	69.1	69.1	84	64.1	1	4	292	0.00	29.731 
23:55	68.9	68.9	68.9	84	63.9	1	3	292	0.00	29.731 

CoCoRaHS
IN-AL-39
A2 Web Hosting
Creative Commons License
GoDaddy
search engine by freefind advanced

loaded 2018-11-15 05:37:20 • last modified 2010-11-18 10:43:29
Privacy PolicyDisclaimer
• wx.awcolley.com is powered by PmWiki v.2002016 •
• all content (unless otherwise noted) © 2018 A W Colley